createdAt,value
2023-02-16T00:00:58.015Z,94166.72
2023-02-16T00:02:29.658Z,94173.03
2023-02-16T00:04:01.560Z,94162.06
2023-02-16T00:05:34.035Z,94161.50
2023-02-16T00:07:05.594Z,94154.78
2023-02-16T00:08:37.116Z,94165.38
2023-02-16T00:10:09.618Z,94159.88
2023-02-16T00:11:59.863Z,94159.28
2023-02-16T00:13:52.925Z,94156.03
2023-02-16T00:15:24.450Z,94161.31
2023-02-16T00:16:57.027Z,94153.38
2023-02-16T00:18:28.594Z,94156.84
2023-02-16T00:20:00.145Z,94156.44
2023-02-16T00:21:32.424Z,94158.50
2023-02-16T00:23:03.902Z,94165.25
2023-02-16T00:24:35.545Z,94163.84
2023-02-16T00:26:11.338Z,94158.16
2023-02-16T00:27:42.817Z,94154.69
2023-02-16T00:29:15.843Z,94160.22
2023-02-16T00:30:47.372Z,94170.22
2023-02-16T00:32:19.188Z,94168.78
2023-02-16T00:33:50.780Z,94166.56
2023-02-16T00:35:22.242Z,94163.91
2023-02-16T00:36:53.910Z,94166.78
2023-02-16T00:38:25.454Z,94158.22
2023-02-16T00:39:56.981Z,94160.84
2023-02-16T00:41:47.038Z,94161.28
2023-02-16T00:43:26.178Z,94154.97
2023-02-16T00:44:57.879Z,94167.78
2023-02-16T00:46:29.417Z,94163.09
2023-02-16T00:48:00.883Z,94169.41
2023-02-16T00:49:32.474Z,94171.69
2023-02-16T00:51:13.737Z,94172.72
2023-02-16T00:52:51.978Z,94173.94
2023-02-16T00:54:23.462Z,94170.91
2023-02-16T00:55:54.990Z,94172.16
2023-02-16T00:57:26.496Z,94167.28
2023-02-16T00:58:58.366Z,94164.66
2023-02-16T01:00:42.452Z,94168.09
2023-02-16T01:02:14.116Z,94166.91
2023-02-16T01:03:45.607Z,94162.84
2023-02-16T01:05:17.177Z,94167.09
2023-02-16T01:07:07.550Z,94165.69
2023-02-16T01:08:57.851Z,94166.72
2023-02-16T01:10:48.129Z,94165.94
2023-02-16T01:12:19.802Z,94150.72
2023-02-16T01:13:51.399Z,94156.84
2023-02-16T01:15:23.156Z,94160.91
2023-02-16T01:16:54.655Z,94149.16
2023-02-16T01:18:26.158Z,94153.84
2023-02-16T01:19:57.644Z,94153.84
2023-02-16T01:21:29.161Z,94148.16
2023-02-16T01:23:01.141Z,94155.47
2023-02-16T01:24:32.800Z,94149.56
2023-02-16T01:26:04.764Z,94147.34
2023-02-16T01:27:39.038Z,94142.84
2023-02-16T01:29:17.142Z,94144.03
2023-02-16T01:30:49.140Z,94139.78
2023-02-16T01:32:20.789Z,94134.13
2023-02-16T01:33:52.378Z,94133.72
2023-02-16T01:35:24.731Z,94134.13
2023-02-16T01:36:56.233Z,94133.31
2023-02-16T01:38:28.114Z,94130.06
2023-02-16T01:39:59.687Z,94126.22
2023-02-16T01:41:31.163Z,94130.91
2023-02-16T01:43:22.131Z,94129.28
2023-02-16T01:44:56.781Z,94126.41
2023-02-16T01:46:34.348Z,94130.88
2023-02-16T01:48:07.102Z,94121.16
2023-02-16T01:49:38.585Z,94123.81
2023-02-16T01:51:17.376Z,94123.16
2023-02-16T01:53:09.289Z,94122.94
2023-02-16T01:54:40.734Z,94126.00
2023-02-16T01:56:15.522Z,94125.19
2023-02-16T01:57:48.034Z,94117.72
2023-02-16T01:59:22.990Z,94124.00
2023-02-16T02:00:57.568Z,94122.78
2023-02-16T02:02:29.432Z,94118.31
2023-02-16T02:04:19.546Z,94122.19
2023-02-16T02:05:51.559Z,94123.03
2023-02-16T02:07:27.243Z,94125.50
2023-02-16T02:09:06.530Z,94121.44
2023-02-16T02:10:58.403Z,94128.16
2023-02-16T02:12:35.260Z,94127.56
2023-02-16T02:14:07.868Z,94124.50
2023-02-16T02:15:39.402Z,94118.03
2023-02-16T02:17:15.084Z,94125.97
2023-02-16T02:18:46.711Z,94129.63
2023-02-16T02:20:55.662Z,94117.84
2023-02-16T02:22:48.650Z,94118.09
2023-02-16T02:24:35.481Z,94114.22
2023-02-16T02:26:15.479Z,94118.91
2023-02-16T02:27:48.405Z,94112.44
2023-02-16T02:29:26.354Z,94112.44
2023-02-16T02:31:06.537Z,94120.34
2023-02-16T02:32:57.026Z,94120.34
2023-02-16T02:34:35.941Z,94115.06
2023-02-16T02:36:13.590Z,94125.78
2023-02-16T02:38:04.130Z,94123.56
2023-02-16T02:39:40.919Z,94119.28
2023-02-16T02:41:15.227Z,94116.63
2023-02-16T02:42:46.759Z,94119.72
2023-02-16T02:44:20.030Z,94125.41
2023-02-16T02:45:55.421Z,94120.13
2023-02-16T02:47:45.778Z,94126.41
2023-02-16T02:49:17.406Z,94117.88
2023-02-16T02:51:15.546Z,94122.97
2023-02-16T02:52:47.044Z,94119.50
2023-02-16T02:54:44.440Z,94128.44
2023-02-16T02:56:34.803Z,94121.53
2023-02-16T02:58:24.945Z,94116.88
2023-02-16T03:00:16.495Z,94122.16
2023-02-16T03:01:49.655Z,94117.88
2023-02-16T03:03:21.168Z,94121.94
2023-02-16T03:04:52.935Z,94120.94
2023-02-16T03:06:26.429Z,94119.31
2023-02-16T03:08:14.316Z,94120.13
2023-02-16T03:09:45.878Z,94115.66
2023-02-16T03:11:41.645Z,94118.69
2023-02-16T03:13:21.251Z,94117.69
2023-02-16T03:14:56.895Z,94118.09
2023-02-16T03:16:31.982Z,94116.06
2023-02-16T03:18:21.821Z,94113.19
2023-02-16T03:20:12.103Z,94118.88
2023-02-16T03:22:01.961Z,94121.50
2023-02-16T03:23:52.127Z,94119.88
2023-02-16T03:25:42.574Z,94108.34
2023-02-16T03:27:36.780Z,94115.88
2023-02-16T03:29:22.715Z,94113.44
2023-02-16T03:30:54.328Z,94118.13
2023-02-16T03:32:25.932Z,94103.69
2023-02-16T03:33:57.516Z,94108.00
2023-02-16T03:35:29.108Z,94105.34
2023-02-16T03:37:00.918Z,94103.94
2023-02-16T03:38:32.402Z,94105.16
2023-02-16T03:40:22.481Z,94105.97
2023-02-16T03:41:54.843Z,94098.03
2023-02-16T03:43:26.798Z,94105.16
2023-02-16T03:44:58.310Z,94102.72
2023-02-16T03:46:29.879Z,94105.56
2023-02-16T03:48:01.502Z,94110.25
2023-02-16T03:49:32.962Z,94105.16
2023-02-16T03:51:04.753Z,94107.81
2023-02-16T03:52:36.397Z,94109.66
2023-02-16T03:54:08.069Z,94115.31
2023-02-16T03:55:40.420Z,94105.19
2023-02-16T03:57:11.985Z,94113.53
2023-02-16T03:58:43.511Z,94116.75
2023-02-16T04:00:15.126Z,94110.06
2023-02-16T04:01:46.558Z,94107.44
2023-02-16T04:03:18.185Z,94103.97
2023-02-16T04:04:49.822Z,94099.53
2023-02-16T04:06:21.295Z,94103.97
2023-02-16T04:07:52.773Z,94105.00
2023-02-16T04:09:24.333Z,94103.38
2023-02-16T04:10:57.599Z,94099.13
2023-02-16T04:12:38.438Z,94102.97
2023-02-16T04:14:09.955Z,94094.25
2023-02-16T04:15:41.687Z,94085.75
2023-02-16T04:17:13.378Z,94091.41
2023-02-16T04:18:45.142Z,94090.00
2023-02-16T04:20:18.368Z,94089.78
2023-02-16T04:21:50.378Z,94092.00
2023-02-16T04:23:21.878Z,94086.53
2023-02-16T04:24:53.490Z,94083.09
2023-02-16T04:26:25.211Z,94083.28
2023-02-16T04:27:56.731Z,94078.84
2023-02-16T04:29:29.422Z,94084.09
2023-02-16T04:31:01.515Z,94080.84
2023-02-16T04:32:33.349Z,94080.66
2023-02-16T04:34:04.984Z,94082.28
2023-02-16T04:35:36.515Z,94084.13
2023-02-16T04:37:08.616Z,94078.03
2023-02-16T04:38:40.360Z,94077.03
2023-02-16T04:40:14.967Z,94073.16
2023-02-16T04:41:46.799Z,94081.69
2023-02-16T04:43:18.298Z,94074.19
2023-02-16T04:44:49.998Z,94077.41
2023-02-16T04:46:22.153Z,94076.59
2023-02-16T04:47:54.177Z,94080.69
2023-02-16T04:49:25.894Z,94080.47
2023-02-16T04:50:57.339Z,94087.56
2023-02-16T04:52:28.923Z,94080.84
2023-02-16T04:54:00.342Z,94078.66
2023-02-16T04:55:31.862Z,94089.38
2023-02-16T04:57:03.488Z,94088.56
2023-02-16T04:58:34.986Z,94094.44
2023-02-16T05:00:07.346Z,94096.44
2023-02-16T05:01:39.046Z,94097.50
2023-02-16T05:03:10.700Z,94101.34
2023-02-16T05:04:42.434Z,94097.47
2023-02-16T05:06:14.076Z,94098.28
2023-02-16T05:07:45.578Z,94104.94
2023-02-16T05:09:17.075Z,94100.88
2023-02-16T05:11:11.239Z,94110.22
2023-02-16T05:13:01.284Z,94115.66
2023-02-16T05:14:42.018Z,94114.25
2023-02-16T05:16:13.560Z,94118.31
2023-02-16T05:17:45.122Z,94120.75
2023-02-16T05:19:16.681Z,94115.47
2023-02-16T05:21:06.986Z,94115.47
2023-02-16T05:22:39.411Z,94116.06
2023-02-16T05:24:11.334Z,94124.59
2023-02-16T05:25:42.893Z,94122.97
2023-02-16T05:27:17.556Z,94123.38
2023-02-16T05:28:49.117Z,94127.03
2023-02-16T05:30:20.942Z,94120.13
2023-02-16T05:31:52.855Z,94123.75
2023-02-16T05:33:24.372Z,94126.41
2023-02-16T05:34:56.235Z,94133.28
2023-02-16T05:36:27.808Z,94135.69
2023-02-16T05:37:59.362Z,94127.41
2023-02-16T05:39:30.949Z,94142.38
2023-02-16T05:41:03.830Z,94135.31
2023-02-16T05:42:35.601Z,94134.47
2023-02-16T05:44:08.473Z,94136.09
2023-02-16T05:45:40.030Z,94135.31
2023-02-16T05:47:11.747Z,94137.94
2023-02-16T05:48:43.260Z,94137.94
2023-02-16T05:50:14.879Z,94128.41
2023-02-16T05:51:46.353Z,94130.22
2023-02-16T05:53:17.893Z,94139.53
2023-02-16T05:54:49.428Z,94132.91
2023-02-16T05:56:21.170Z,94133.72
2023-02-16T05:57:52.695Z,94133.13
2023-02-16T05:59:24.171Z,94138.81
2023-02-16T06:00:55.737Z,94137.63
2023-02-16T06:02:27.507Z,94138.25
2023-02-16T06:03:59.121Z,94140.91
2023-02-16T06:05:30.612Z,94141.09
2023-02-16T06:07:02.274Z,94150.00
2023-02-16T06:08:33.928Z,94139.47
2023-02-16T06:10:05.822Z,94147.38
2023-02-16T06:11:37.520Z,94147.38
2023-02-16T06:13:09.160Z,94144.34
2023-02-16T06:14:40.732Z,94141.72
2023-02-16T06:16:12.347Z,94149.22
2023-02-16T06:17:44.822Z,94144.13
2023-02-16T06:19:16.673Z,94150.22
2023-02-16T06:20:48.226Z,94142.09
2023-02-16T06:22:19.979Z,94145.53
2023-02-16T06:23:51.604Z,94151.41
2023-02-16T06:25:23.254Z,94147.72
2023-02-16T06:26:54.798Z,94148.28
2023-02-16T06:28:26.299Z,94150.47
2023-02-16T06:29:57.976Z,94156.28
2023-02-16T06:31:29.750Z,94156.63
2023-02-16T06:33:02.033Z,94158.56
2023-02-16T06:34:33.595Z,94150.97
2023-02-16T06:36:05.366Z,94160.22
2023-02-16T06:37:36.832Z,94153.19
2023-02-16T06:39:08.496Z,94153.56
2023-02-16T06:40:40.007Z,94157.91
2023-02-16T06:42:11.682Z,94162.38
2023-02-16T06:43:43.716Z,94160.47
2023-02-16T06:45:15.315Z,94155.97
2023-02-16T06:46:47.160Z,94164.53
2023-02-16T06:48:18.956Z,94158.41
2023-02-16T06:49:50.433Z,94157.19
2023-02-16T06:51:22.029Z,94156.31
2023-02-16T06:52:53.641Z,94168.31
2023-02-16T06:54:33.667Z,94160.97
2023-02-16T06:57:43.090Z,94157.56
2023-02-16T06:59:14.710Z,94158.00
2023-02-16T07:00:49.413Z,94161.81
2023-02-16T07:02:20.966Z,94160.75
2023-02-16T07:03:53.450Z,94154.31
2023-02-16T07:05:25.106Z,94156.25
2023-02-16T07:06:56.702Z,94153.88
2023-02-16T07:08:28.263Z,94153.59
2023-02-16T07:09:59.845Z,94157.13
2023-02-16T07:11:31.359Z,94149.91
2023-02-16T07:13:02.868Z,94153.75
2023-02-16T07:14:34.354Z,94153.75
2023-02-16T07:16:06.181Z,94158.38
2023-02-16T07:17:37.911Z,94148.94
2023-02-16T07:19:10.733Z,94150.66
2023-02-16T07:20:42.239Z,94148.34
2023-02-16T07:22:13.774Z,94143.72
2023-02-16T07:23:45.499Z,94134.88
2023-02-16T07:25:17.199Z,94130.53
2023-02-16T07:26:49.210Z,94134.13
2023-02-16T07:28:21.015Z,94125.59
2023-02-16T07:29:52.563Z,94127.09
2023-02-16T07:31:26.627Z,94133.84
2023-02-16T07:32:58.238Z,94121.63
2023-02-16T07:34:30.125Z,94122.22
2023-02-16T07:36:01.780Z,94125.03
2023-02-16T07:37:33.253Z,94122.94
2023-02-16T07:39:04.902Z,94127.56
2023-02-16T07:40:36.499Z,94115.94
2023-02-16T07:42:08.010Z,94120.94
2023-02-16T07:43:39.691Z,94129.09
2023-02-16T07:45:11.317Z,94125.06
2023-02-16T07:46:43.004Z,94132.47
2023-02-16T07:48:14.522Z,94128.84
2023-02-16T07:49:46.224Z,94128.38
2023-02-16T07:51:21.597Z,94126.06
2023-02-16T07:52:53.682Z,94132.41
2023-02-16T07:54:25.561Z,94131.16
2023-02-16T07:55:57.203Z,94132.66
2023-02-16T07:57:28.943Z,94127.34
2023-02-16T07:59:01.022Z,94134.50
2023-02-16T08:00:32.896Z,94139.22
2023-02-16T08:02:04.455Z,94140.47
2023-02-16T08:03:36.180Z,94135.97
2023-02-16T08:05:07.912Z,94136.69
2023-02-16T08:06:39.585Z,94140.28
2023-02-16T08:08:11.190Z,94143.84
2023-02-16T08:09:42.722Z,94139.38
2023-02-16T08:11:18.056Z,94146.28
2023-02-16T08:12:50.082Z,94134.41
2023-02-16T08:14:21.552Z,94142.59
2023-02-16T08:15:53.065Z,94140.41
2023-02-16T08:17:24.653Z,94144.47
2023-02-16T08:18:56.860Z,94142.03
2023-02-16T08:20:48.179Z,94143.22
2023-02-16T08:22:20.185Z,94143.91
2023-02-16T08:23:55.284Z,94145.53
2023-02-16T08:25:27.414Z,94140.13
2023-02-16T08:26:59.981Z,94141.50
2023-02-16T08:28:31.469Z,94142.09
2023-02-16T08:30:04.141Z,94147.16
2023-02-16T08:31:36.641Z,94141.84
2023-02-16T08:33:08.400Z,94140.28
2023-02-16T08:34:42.940Z,94146.31
2023-02-16T08:36:21.354Z,94133.59
2023-02-16T08:37:53.033Z,94141.78
2023-02-16T08:39:26.155Z,94138.75
2023-02-16T08:40:57.621Z,94134.09
2023-02-16T08:42:29.260Z,94143.81
2023-02-16T08:44:01.265Z,94138.34
2023-02-16T08:45:33.177Z,94144.03
2023-02-16T08:47:04.997Z,94141.72
2023-02-16T08:48:36.962Z,94135.31
2023-02-16T08:50:08.973Z,94133.16
2023-02-16T08:51:41.618Z,94129.03
2023-02-16T08:53:13.688Z,94130.09
2023-02-16T08:54:45.280Z,94129.78
2023-02-16T08:56:17.030Z,94131.28
2023-02-16T08:57:48.636Z,94131.69
2023-02-16T08:59:20.422Z,94130.16
2023-02-16T09:00:52.103Z,94128.94
2023-02-16T09:02:23.901Z,94134.19
2023-02-16T09:03:55.896Z,94130.63
2023-02-16T09:05:28.386Z,94130.78
2023-02-16T09:07:00.663Z,94129.66
2023-02-16T09:08:32.968Z,94133.81
2023-02-16T09:10:04.826Z,94128.63
2023-02-16T09:11:36.557Z,94131.44
2023-02-16T09:13:14.356Z,94124.69
2023-02-16T09:14:45.975Z,94124.16
2023-02-16T09:16:19.122Z,94129.94
2023-02-16T09:17:51.010Z,94126.78
2023-02-16T09:19:22.801Z,94126.44
2023-02-16T09:20:55.119Z,94123.91
2023-02-16T09:22:27.559Z,94124.00
2023-02-16T09:24:00.936Z,94127.59
2023-02-16T09:25:36.137Z,94123.91
2023-02-16T09:27:07.680Z,94121.22
2023-02-16T09:28:39.589Z,94118.63
2023-02-16T09:30:11.328Z,94114.50
2023-02-16T09:31:44.580Z,94113.22
2023-02-16T09:33:16.830Z,94113.53
2023-02-16T09:34:50.310Z,94109.91
2023-02-16T09:36:21.883Z,94112.34
2023-02-16T09:37:54.644Z,94112.75
2023-02-16T09:39:26.487Z,94112.59
2023-02-16T09:40:58.123Z,94108.38
2023-02-16T09:42:48.365Z,94109.97
2023-02-16T09:44:26.395Z,94105.34
2023-02-16T09:45:59.005Z,94103.34
2023-02-16T09:47:31.805Z,94102.38
2023-02-16T09:49:03.856Z,94096.56
2023-02-16T09:50:52.981Z,94102.72
2023-02-16T09:52:40.404Z,94098.00
2023-02-16T09:54:14.981Z,94093.50
2023-02-16T09:55:55.125Z,94087.13
2023-02-16T09:57:36.105Z,94089.84
2023-02-16T09:59:12.914Z,94087.69
2023-02-16T10:00:47.648Z,94091.19
2023-02-16T10:02:34.835Z,94085.84
2023-02-16T10:04:25.105Z,94078.03
2023-02-16T10:06:02.890Z,94090.66
2023-02-16T10:07:43.207Z,94089.34
2023-02-16T10:09:16.580Z,94083.94
2023-02-16T10:10:50.202Z,94080.72
2023-02-16T10:12:24.074Z,94081.25
2023-02-16T10:13:57.594Z,94073.69
2023-02-16T10:15:29.420Z,94075.56
2023-02-16T10:17:03.677Z,94076.59
2023-02-16T10:18:35.700Z,94068.25
2023-02-16T10:20:10.445Z,94072.06
2023-02-16T10:21:45.263Z,94071.25
2023-02-16T10:23:34.194Z,94069.38
2023-02-16T10:25:12.873Z,94068.75
2023-02-16T10:26:46.429Z,94070.34
2023-02-16T10:28:20.285Z,94073.50
2023-02-16T10:29:53.452Z,94065.94
2023-02-16T10:31:28.068Z,94067.25
2023-02-16T10:33:05.277Z,94065.38
2023-02-16T10:34:48.303Z,94065.59
2023-02-16T10:36:23.114Z,94067.13
2023-02-16T10:38:03.678Z,94068.69
2023-02-16T10:39:53.819Z,94072.06
2023-02-16T10:41:28.236Z,94072.97
2023-02-16T10:43:07.377Z,94067.44
2023-02-16T10:44:43.810Z,94067.00
2023-02-16T10:46:16.981Z,94064.75
2023-02-16T10:47:48.688Z,94061.09
2023-02-16T10:49:21.151Z,94064.00
2023-02-16T10:50:56.641Z,94065.28
2023-02-16T10:52:29.327Z,94063.50
2023-02-16T10:54:02.148Z,94051.47
2023-02-16T10:55:33.708Z,94051.34
2023-02-16T10:57:13.325Z,94050.28
2023-02-16T10:58:44.876Z,94047.09
2023-02-16T11:00:16.813Z,94040.53
2023-02-16T11:01:54.934Z,94041.03
2023-02-16T11:03:32.156Z,94032.94
2023-02-16T11:05:06.444Z,94032.78
2023-02-16T11:06:38.475Z,94033.38
2023-02-16T11:08:12.889Z,94025.81
2023-02-16T11:09:45.472Z,94026.63
2023-02-16T11:11:17.135Z,94019.66
2023-02-16T11:12:51.155Z,94015.94
2023-02-16T11:14:23.995Z,94024.66
2023-02-16T11:15:57.016Z,94014.97
2023-02-16T11:17:28.937Z,94017.19
2023-02-16T11:19:06.185Z,94022.09
2023-02-16T11:20:46.815Z,94007.06
2023-02-16T11:22:26.164Z,94013.28
2023-02-16T11:23:58.483Z,94007.16
2023-02-16T11:25:30.091Z,94010.75
2023-02-16T11:27:08.362Z,94012.34
2023-02-16T11:28:40.045Z,94009.53
2023-02-16T11:30:22.363Z,94003.81
2023-02-16T11:31:54.102Z,94001.59
2023-02-16T11:33:27.101Z,94004.50
2023-02-16T11:34:58.675Z,93995.16
2023-02-16T11:36:57.189Z,93993.50
2023-02-16T11:38:32.842Z,93997.53
2023-02-16T11:40:09.442Z,93995.00
2023-02-16T11:41:44.377Z,93994.22
2023-02-16T11:43:17.102Z,93992.91
2023-02-16T11:44:52.373Z,94002.38
2023-02-16T11:46:24.172Z,93995.31
2023-02-16T11:47:57.088Z,93998.38
2023-02-16T11:49:36.139Z,93992.47
2023-02-16T11:51:08.998Z,93987.25
2023-02-16T11:52:40.527Z,93992.59
2023-02-16T11:54:16.197Z,93985.44
2023-02-16T11:55:48.236Z,93989.34
2023-02-16T11:57:23.642Z,93988.75
2023-02-16T11:59:13.424Z,93976.91
2023-02-16T12:01:00.351Z,93982.81
2023-02-16T12:02:41.255Z,93980.13
2023-02-16T12:04:22.521Z,93974.66
2023-02-16T12:05:54.882Z,93978.03
2023-02-16T12:07:27.630Z,93973.66
2023-02-16T12:09:11.606Z,93967.03
2023-02-16T12:10:52.201Z,93963.13
2023-02-16T12:12:46.792Z,93967.56
2023-02-16T12:14:29.256Z,93963.44
2023-02-16T12:16:01.284Z,93959.13
2023-02-16T12:17:55.055Z,93958.50
2023-02-16T12:19:29.872Z,93963.16
2023-02-16T12:21:01.989Z,93953.41
2023-02-16T12:22:40.421Z,93953.13
2023-02-16T12:24:27.808Z,93950.75
2023-02-16T12:26:08.666Z,93947.09
2023-02-16T12:27:43.116Z,93958.56
2023-02-16T12:29:23.556Z,93952.97
2023-02-16T12:31:12.330Z,93951.09
2023-02-16T12:33:10.873Z,93946.31
2023-02-16T12:34:42.454Z,93941.03
2023-02-16T12:36:20.324Z,93935.13
2023-02-16T12:37:52.539Z,93942.44
2023-02-16T12:39:31.994Z,93930.44
2023-02-16T12:41:10.073Z,93945.28
2023-02-16T12:42:51.278Z,93930.59
2023-02-16T12:44:32.453Z,93933.03
2023-02-16T12:46:07.513Z,93923.13
2023-02-16T12:47:44.078Z,93921.81
2023-02-16T12:49:16.876Z,93926.13
2023-02-16T12:50:48.621Z,93929.00
2023-02-16T12:52:26.032Z,93925.66
2023-02-16T12:54:18.342Z,93911.88
2023-02-16T12:55:52.120Z,93920.34
2023-02-16T12:57:24.841Z,93914.09
2023-02-16T12:59:03.576Z,93911.34
2023-02-16T13:00:40.745Z,93907.78
2023-02-16T13:02:15.274Z,93913.72
2023-02-16T13:03:47.589Z,93912.31
2023-02-16T13:05:23.089Z,93908.47
2023-02-16T13:07:06.626Z,93899.97
2023-02-16T13:08:47.446Z,93900.25
2023-02-16T13:10:19.073Z,93903.25
2023-02-16T13:12:19.736Z,93899.25
2023-02-16T13:13:52.340Z,93894.53
2023-02-16T13:15:31.201Z,93895.81
2023-02-16T13:17:03.663Z,93889.09
2023-02-16T13:18:41.229Z,93896.16
2023-02-16T13:20:15.251Z,93890.34
2023-02-16T13:21:51.222Z,93887.72
2023-02-16T13:23:32.960Z,93890.56
2023-02-16T13:25:34.086Z,93882.28
2023-02-16T13:27:24.607Z,93888.41
2023-02-16T13:29:31.772Z,93883.91
2023-02-16T13:31:15.886Z,93885.53
2023-02-16T13:32:48.811Z,93883.34
2023-02-16T13:34:24.965Z,93886.19
2023-02-16T13:36:03.752Z,93874.25
2023-02-16T13:37:56.409Z,93886.41
2023-02-16T13:39:56.199Z,93878.09
2023-02-16T13:41:30.886Z,93883.19
2023-02-16T13:43:02.971Z,93876.16
2023-02-16T13:44:34.575Z,93879.16
2023-02-16T13:46:38.538Z,93875.78
2023-02-16T13:48:27.272Z,93874.19
2023-02-16T13:50:02.883Z,93872.78
2023-02-16T13:51:44.351Z,93869.63
2023-02-16T13:53:17.719Z,93870.28
2023-02-16T13:54:50.342Z,93882.72
2023-02-16T13:56:22.684Z,93876.97
2023-02-16T13:58:00.398Z,93873.19
2023-02-16T13:59:34.697Z,93870.19
2023-02-16T14:01:24.847Z,93875.00
2023-02-16T14:03:03.770Z,93880.31
2023-02-16T14:04:35.399Z,93875.38
2023-02-16T14:06:25.751Z,93880.34
2023-02-16T14:08:18.138Z,93873.78
2023-02-16T14:09:50.243Z,93874.25
2023-02-16T14:11:21.913Z,93876.63
2023-02-16T14:12:53.982Z,93877.09
2023-02-16T14:14:25.584Z,93882.06
2023-02-16T14:15:58.000Z,93870.09
2023-02-16T14:17:31.185Z,93870.91
2023-02-16T14:19:17.056Z,93879.06
2023-02-16T14:20:50.682Z,93868.03
2023-02-16T14:22:31.299Z,93866.91
2023-02-16T14:24:03.486Z,93865.75
2023-02-16T14:25:35.834Z,93866.69
2023-02-16T14:27:09.459Z,93862.84
2023-02-16T14:29:03.701Z,93869.06
2023-02-16T14:30:55.573Z,93869.50
2023-02-16T14:32:28.716Z,93860.03
2023-02-16T14:34:02.342Z,93861.31
2023-02-16T14:35:37.825Z,93866.53
2023-02-16T14:37:10.556Z,93860.19
2023-02-16T14:38:42.501Z,93867.59
2023-02-16T14:40:15.924Z,93864.44
2023-02-16T14:41:47.678Z,93866.84
2023-02-16T14:43:26.654Z,93862.88
2023-02-16T14:45:03.763Z,93862.69
2023-02-16T14:46:38.013Z,93855.03
2023-02-16T14:48:18.724Z,93862.25
2023-02-16T14:50:03.825Z,93860.81
2023-02-16T14:51:38.120Z,93864.34
2023-02-16T14:53:18.014Z,93864.22
2023-02-16T14:55:07.890Z,93863.88
2023-02-16T14:56:42.134Z,93859.75
2023-02-16T14:58:20.358Z,93866.59
2023-02-16T14:59:57.453Z,93866.44
2023-02-16T15:01:29.238Z,93867.91
2023-02-16T15:03:02.106Z,93870.59
2023-02-16T15:04:33.828Z,93870.44
2023-02-16T15:06:06.531Z,93867.88
2023-02-16T15:07:39.145Z,93861.66
2023-02-16T15:09:26.706Z,93870.56
2023-02-16T15:10:58.237Z,93869.13
2023-02-16T15:12:30.068Z,93869.88
2023-02-16T15:14:03.658Z,93875.44
2023-02-16T15:15:37.812Z,93873.16
2023-02-16T15:17:10.250Z,93869.38
2023-02-16T15:18:42.884Z,93869.84
2023-02-16T15:20:30.615Z,93872.19
2023-02-16T15:22:17.632Z,93866.91
2023-02-16T15:23:53.306Z,93871.03
2023-02-16T15:25:24.992Z,93873.28
2023-02-16T15:26:57.102Z,93876.75
2023-02-16T15:28:32.604Z,93880.88
2023-02-16T15:30:09.634Z,93876.75
2023-02-16T15:31:41.340Z,93873.59
2023-02-16T15:33:24.898Z,93872.16
2023-02-16T15:34:56.963Z,93872.63
2023-02-16T15:36:46.733Z,93879.50
2023-02-16T15:38:18.257Z,93875.31
2023-02-16T15:40:08.665Z,93872.75
2023-02-16T15:41:43.394Z,93871.41
2023-02-16T15:43:33.339Z,93876.00
2023-02-16T15:45:18.930Z,93882.19
2023-02-16T15:46:50.675Z,93880.06
2023-02-16T15:48:35.467Z,93883.31
2023-02-16T15:50:12.214Z,93877.19
2023-02-16T15:51:44.868Z,93877.28
2023-02-16T15:53:16.655Z,93873.47
2023-02-16T15:54:48.399Z,93881.66
2023-02-16T15:56:29.690Z,93884.88
2023-02-16T15:58:01.324Z,93880.31
2023-02-16T15:59:38.841Z,93877.34
2023-02-16T16:01:10.995Z,93882.28
2023-02-16T16:02:44.038Z,93880.19
2023-02-16T16:04:17.712Z,93879.69
2023-02-16T16:06:03.402Z,93883.25
2023-02-16T16:07:36.472Z,93884.63
2023-02-16T16:09:08.727Z,93886.84
2023-02-16T16:10:42.155Z,93890.09
2023-02-16T16:12:16.448Z,93890.66
2023-02-16T16:13:48.775Z,93895.78
2023-02-16T16:15:21.399Z,93892.53
2023-02-16T16:16:53.105Z,93896.75
2023-02-16T16:18:39.772Z,93899.00
2023-02-16T16:20:31.083Z,93891.63
2023-02-16T16:22:04.650Z,93900.44
2023-02-16T16:23:36.938Z,93904.63
2023-02-16T16:25:27.376Z,93908.03
2023-02-16T16:26:59.281Z,93903.56
2023-02-16T16:28:31.800Z,93905.50
2023-02-16T16:30:15.581Z,93908.03
2023-02-16T16:31:47.609Z,93903.31
2023-02-16T16:33:19.251Z,93909.84
2023-02-16T16:34:51.890Z,93919.06
2023-02-16T16:36:33.428Z,93914.59
2023-02-16T16:38:05.611Z,93918.72
2023-02-16T16:39:37.976Z,93923.13
2023-02-16T16:41:25.249Z,93918.88
2023-02-16T16:43:17.368Z,93920.28
2023-02-16T16:44:54.832Z,93923.59
2023-02-16T16:46:27.031Z,93922.84
2023-02-16T16:47:58.813Z,93927.41
2023-02-16T16:49:30.372Z,93927.41
2023-02-16T16:51:27.716Z,93928.25
2023-02-16T16:52:59.424Z,93923.94
2023-02-16T16:54:35.688Z,93926.09
2023-02-16T16:56:11.408Z,93926.63
2023-02-16T16:57:43.002Z,93932.53
2023-02-16T16:59:14.583Z,93926.34
2023-02-16T17:00:46.174Z,93929.31
2023-02-16T17:02:18.398Z,93925.53
2023-02-16T17:03:50.124Z,93924.13
2023-02-16T17:05:21.939Z,93932.25
2023-02-16T17:06:54.129Z,93927.22
2023-02-16T17:08:25.659Z,93925.88
2023-02-16T17:09:57.798Z,93924.81
2023-02-16T17:11:38.015Z,93929.41
2023-02-16T17:13:13.489Z,93925.69
2023-02-16T17:14:45.007Z,93931.34
2023-02-16T17:16:17.734Z,93927.94
2023-02-16T17:17:49.419Z,93934.94
2023-02-16T17:19:21.533Z,93933.06
2023-02-16T17:20:53.274Z,93935.44
2023-02-16T17:22:25.053Z,93933.56
2023-02-16T17:23:56.672Z,93939.75
2023-02-16T17:25:28.542Z,93934.44
2023-02-16T17:27:00.698Z,93930.47
2023-02-16T17:28:37.035Z,93933.22
2023-02-16T17:30:09.025Z,93932.44
2023-02-16T17:31:40.723Z,93930.06
2023-02-16T17:33:12.374Z,93939.47
2023-02-16T17:34:44.963Z,93934.91
2023-02-16T17:36:17.055Z,93938.41
2023-02-16T17:37:48.805Z,93939.75
2023-02-16T17:39:20.399Z,93944.06
2023-02-16T17:40:52.510Z,93934.44
2023-02-16T17:42:24.091Z,93932.31
2023-02-16T17:43:55.934Z,93943.84
2023-02-16T17:45:27.438Z,93946.53
2023-02-16T17:46:58.938Z,93949.22
2023-02-16T17:48:30.757Z,93950.28
2023-02-16T17:50:02.337Z,93950.03
2023-02-16T17:51:36.501Z,93950.81
2023-02-16T17:53:15.212Z,93954.06
2023-02-16T17:54:46.718Z,93950.84
2023-02-16T17:56:19.452Z,93944.44
2023-02-16T17:57:51.954Z,93958.13
2023-02-16T17:59:23.757Z,93954.38
2023-02-16T18:00:55.424Z,93953.03
2023-02-16T18:02:27.197Z,93956.00
2023-02-16T18:03:59.714Z,93953.06
2023-02-16T18:05:31.220Z,93955.47
2023-02-16T18:07:02.888Z,93957.91
2023-02-16T18:08:34.419Z,93954.44
2023-02-16T18:10:06.265Z,93951.78
2023-02-16T18:11:37.833Z,93955.28
2023-02-16T18:13:11.601Z,93957.41
2023-02-16T18:14:43.820Z,93964.09
2023-02-16T18:16:16.143Z,93952.84
2023-02-16T18:17:47.714Z,93955.78
2023-02-16T18:19:19.563Z,93959.50
2023-02-16T18:20:51.041Z,93955.75
2023-02-16T18:22:22.564Z,93956.56
2023-02-16T18:23:54.188Z,93959.47
2023-02-16T18:25:25.883Z,93956.53
2023-02-16T18:26:57.701Z,93958.13
2023-02-16T18:28:30.850Z,93957.31
2023-02-16T18:30:02.553Z,93958.94
2023-02-16T18:31:34.168Z,93955.72
2023-02-16T18:33:05.728Z,93957.03
2023-02-16T18:34:37.658Z,93956.78
2023-02-16T18:36:10.081Z,93952.22
2023-02-16T18:37:41.700Z,93958.13
2023-02-16T18:39:13.376Z,93948.50
2023-02-16T18:40:44.972Z,93955.19
2023-02-16T18:42:16.666Z,93956.00